createdAt,value
2023-01-25T00:01:54.123Z,7.95
2023-01-25T00:04:21.977Z,8.75
2023-01-25T00:06:49.311Z,8.52
2023-01-25T00:09:17.080Z,6.82
2023-01-25T00:11:44.303Z,7.72
2023-01-25T00:14:12.141Z,7.40
2023-01-25T00:16:40.114Z,7.50
2023-01-25T00:19:08.060Z,7.78
2023-01-25T00:21:36.848Z,8.20
2023-01-25T00:24:04.675Z,8.30
2023-01-25T00:26:32.730Z,9.38
2023-01-25T00:28:59.569Z,9.27
2023-01-25T00:31:51.333Z,8.10
2023-01-25T00:34:27.124Z,7.78
2023-01-25T00:37:06.590Z,8.88
2023-01-25T00:39:33.232Z,8.75
2023-01-25T00:42:00.949Z,7.82
2023-01-25T00:44:27.560Z,7.43
2023-01-25T00:46:54.148Z,8.20
2023-01-25T00:49:26.550Z,8.48
2023-01-25T00:51:54.499Z,17.05
2023-01-25T00:54:22.025Z,10.20
2023-01-25T00:56:48.801Z,9.50
2023-01-25T00:59:15.615Z,8.88
2023-01-25T01:01:42.504Z,8.60
2023-01-25T01:04:09.174Z,9.38
2023-01-25T01:06:37.045Z,10.70
2023-01-25T01:09:04.523Z,10.75
2023-01-25T01:11:31.733Z,11.02
2023-01-25T01:13:59.587Z,10.43
2023-01-25T01:16:27.087Z,7.97
2023-01-25T01:18:54.114Z,8.52
2023-01-25T01:21:20.932Z,9.30
2023-01-25T01:23:48.106Z,10.70
2023-01-25T01:26:16.457Z,8.20
2023-01-25T01:28:43.345Z,10.15
2023-01-25T01:31:15.454Z,8.80
2023-01-25T01:33:42.184Z,10.18
2023-01-25T01:36:14.189Z,7.95
2023-01-25T01:38:41.593Z,10.35
2023-01-25T01:41:09.074Z,8.73
2023-01-25T01:43:36.140Z,7.28
2023-01-25T01:46:09.992Z,8.90
2023-01-25T01:48:38.406Z,8.23
2023-01-25T01:51:27.235Z,9.05
2023-01-25T01:54:12.634Z,8.20
2023-01-25T01:56:58.115Z,7.22
2023-01-25T01:59:30.733Z,8.60
2023-01-25T02:01:57.379Z,9.15
2023-01-25T02:04:27.184Z,8.93
2023-01-25T02:07:11.759Z,8.63
2023-01-25T02:09:38.438Z,9.35
2023-01-25T02:12:07.448Z,8.80
2023-01-25T02:14:34.890Z,8.43
2023-01-25T02:17:01.643Z,8.25
2023-01-25T02:19:58.718Z,7.55
2023-01-25T02:22:44.386Z,8.52
2023-01-25T02:25:13.173Z,7.30
2023-01-25T02:27:46.211Z,6.85
2023-01-25T02:30:12.952Z,8.40
2023-01-25T02:32:39.731Z,9.23
2023-01-25T02:35:07.303Z,8.85
2023-01-25T02:37:34.191Z,7.65
2023-01-25T02:40:00.834Z,8.52
2023-01-25T02:42:31.142Z,9.15
2023-01-25T02:44:57.854Z,7.50
2023-01-25T02:47:24.486Z,8.00
2023-01-25T02:49:51.054Z,7.70
2023-01-25T02:52:17.671Z,8.73
2023-01-25T02:54:44.264Z,8.95
2023-01-25T02:57:10.869Z,8.10
2023-01-25T02:59:41.378Z,7.32
2023-01-25T03:02:09.000Z,8.60
2023-01-25T03:04:36.469Z,8.98
2023-01-25T03:07:07.550Z,8.90
2023-01-25T03:09:34.320Z,9.63
2023-01-25T03:12:00.913Z,8.68
2023-01-25T03:14:44.480Z,8.25
2023-01-25T03:17:11.785Z,8.77
2023-01-25T03:19:38.406Z,8.52
2023-01-25T03:22:06.767Z,8.32
2023-01-25T03:24:33.363Z,7.88
2023-01-25T03:27:13.251Z,8.30
2023-01-25T03:29:41.654Z,8.10
2023-01-25T03:32:09.045Z,7.50
2023-01-25T03:34:36.170Z,7.65
2023-01-25T03:37:03.241Z,7.93
2023-01-25T03:39:29.837Z,7.47
2023-01-25T03:41:56.432Z,6.40
2023-01-25T03:44:23.055Z,7.47
2023-01-25T03:46:49.727Z,6.50
2023-01-25T03:49:16.459Z,6.15
2023-01-25T03:51:43.063Z,6.93
2023-01-25T03:54:10.143Z,6.40
2023-01-25T03:56:37.788Z,6.45
2023-01-25T03:59:04.807Z,6.60
2023-01-25T04:01:31.382Z,6.50
2023-01-25T04:03:58.139Z,5.85
2023-01-25T04:06:24.708Z,5.40
2023-01-25T04:08:51.326Z,5.85
2023-01-25T04:11:17.889Z,5.53
2023-01-25T04:13:44.644Z,6.70
2023-01-25T04:16:12.121Z,6.70
2023-01-25T04:18:39.049Z,6.85
2023-01-25T04:21:05.844Z,6.65
2023-01-25T04:23:32.455Z,6.93
2023-01-25T04:26:05.767Z,5.82
2023-01-25T04:28:33.727Z,4.85
2023-01-25T04:31:00.842Z,4.93
2023-01-25T04:33:27.483Z,5.65
2023-01-25T04:35:54.092Z,6.43
2023-01-25T04:38:21.386Z,6.05
2023-01-25T04:40:48.011Z,7.07
2023-01-25T04:43:16.089Z,7.32
2023-01-25T04:45:42.936Z,6.28
2023-01-25T04:48:11.298Z,5.90
2023-01-25T04:50:39.233Z,5.75
2023-01-25T04:53:07.256Z,5.32
2023-01-25T04:55:34.919Z,5.72
2023-01-25T04:58:02.527Z,6.25
2023-01-25T05:00:39.240Z,6.72
2023-01-25T05:03:05.922Z,7.20
2023-01-25T05:05:32.645Z,6.18
2023-01-25T05:07:59.221Z,4.68
2023-01-25T05:10:25.821Z,6.40
2023-01-25T05:12:52.426Z,5.40
2023-01-25T05:15:19.098Z,5.10
2023-01-25T05:17:45.668Z,5.65
2023-01-25T05:20:12.585Z,5.80
2023-01-25T05:22:39.278Z,5.60
2023-01-25T05:25:26.319Z,6.15
2023-01-25T05:27:53.025Z,6.05
2023-01-25T05:30:19.656Z,5.70
2023-01-25T05:32:47.707Z,5.72
2023-01-25T05:35:14.384Z,6.13
2023-01-25T05:37:41.073Z,5.03
2023-01-25T05:40:08.557Z,5.30
2023-01-25T05:42:35.206Z,4.60
2023-01-25T05:45:01.947Z,4.82
2023-01-25T05:47:28.572Z,5.35
2023-01-25T05:49:55.158Z,4.85
2023-01-25T05:52:21.740Z,20.55
2023-01-25T05:54:49.287Z,10.88
2023-01-25T05:57:16.373Z,8.45
2023-01-25T05:59:43.074Z,5.80
2023-01-25T06:02:09.741Z,5.40
2023-01-25T06:04:36.452Z,5.55
2023-01-25T06:07:03.127Z,5.65
2023-01-25T06:09:29.682Z,5.47
2023-01-25T06:11:56.259Z,5.90
2023-01-25T06:14:23.763Z,5.93
2023-01-25T06:16:51.201Z,5.55
2023-01-25T06:19:19.400Z,6.35
2023-01-25T06:21:46.048Z,5.35
2023-01-25T06:24:12.859Z,5.78
2023-01-25T06:26:39.522Z,4.97
2023-01-25T06:29:06.891Z,6.03
2023-01-25T06:31:34.748Z,5.53
2023-01-25T06:34:04.467Z,5.45
2023-01-25T06:36:31.157Z,5.95
2023-01-25T06:38:57.804Z,6.13
2023-01-25T06:41:24.537Z,6.25
2023-01-25T06:43:52.181Z,5.68
2023-01-25T06:46:19.613Z,5.30
2023-01-25T06:48:46.299Z,5.90
2023-01-25T06:51:14.467Z,5.82
2023-01-25T06:53:44.743Z,5.72
2023-01-25T06:56:14.685Z,6.70
2023-01-25T06:58:41.741Z,6.20
2023-01-25T07:01:20.165Z,6.30
2023-01-25T07:03:51.379Z,6.40
2023-01-25T07:06:19.907Z,6.53
2023-01-25T07:08:47.244Z,5.93
2023-01-25T07:11:14.990Z,5.30
2023-01-25T07:13:42.984Z,5.60
2023-01-25T07:16:12.450Z,5.82
2023-01-25T07:18:40.479Z,5.90
2023-01-25T07:21:14.601Z,5.80
2023-01-25T07:23:41.846Z,4.80
2023-01-25T07:26:17.117Z,5.50
2023-01-25T07:28:44.773Z,6.38
2023-01-25T07:31:12.151Z,6.07
2023-01-25T07:33:39.339Z,6.15
2023-01-25T07:36:07.391Z,6.75
2023-01-25T07:38:34.685Z,7.20
2023-01-25T07:41:02.001Z,6.45
2023-01-25T07:43:29.395Z,6.80
2023-01-25T07:46:01.159Z,6.90
2023-01-25T07:48:28.460Z,7.35
2023-01-25T07:51:22.978Z,5.30
2023-01-25T07:53:54.384Z,6.32
2023-01-25T07:56:22.330Z,5.75
2023-01-25T07:58:49.692Z,6.10
2023-01-25T08:01:18.150Z,5.43
2023-01-25T08:03:45.619Z,6.05
2023-01-25T08:06:13.028Z,5.60
2023-01-25T08:08:46.293Z,5.60
2023-01-25T08:11:17.817Z,6.10
2023-01-25T08:13:46.237Z,8.45
2023-01-25T08:16:14.012Z,7.18
2023-01-25T08:18:43.178Z,8.43
2023-01-25T08:21:10.623Z,8.70
2023-01-25T08:23:37.698Z,5.80
2023-01-25T08:26:05.705Z,5.65
2023-01-25T08:28:32.754Z,6.05
2023-01-25T08:31:11.104Z,5.30
2023-01-25T08:33:38.365Z,5.50
2023-01-25T08:36:06.140Z,5.25
2023-01-25T08:38:33.204Z,6.00
2023-01-25T08:41:07.122Z,5.13
2023-01-25T08:43:34.283Z,5.00
2023-01-25T08:46:01.718Z,5.85
2023-01-25T08:48:28.745Z,5.93
2023-01-25T08:50:56.092Z,5.70
2023-01-25T08:53:23.368Z,5.15
2023-01-25T08:55:50.460Z,5.80
2023-01-25T08:58:19.772Z,7.40
2023-01-25T09:00:47.931Z,6.45
2023-01-25T09:03:15.021Z,4.40
2023-01-25T09:05:42.035Z,8.50
2023-01-25T09:08:10.960Z,13.35
2023-01-25T09:10:38.053Z,8.18
2023-01-25T09:13:08.428Z,6.72
2023-01-25T09:15:35.819Z,5.75
2023-01-25T09:18:02.940Z,6.95
2023-01-25T09:20:33.119Z,6.03
2023-01-25T09:23:01.596Z,4.95
2023-01-25T09:25:28.599Z,5.65
2023-01-25T09:28:11.457Z,6.13
2023-01-25T09:30:47.279Z,4.60
2023-01-25T09:33:17.454Z,4.85
2023-01-25T09:35:48.722Z,5.53
2023-01-25T09:38:15.739Z,4.45
2023-01-25T09:40:46.152Z,4.70
2023-01-25T09:43:24.706Z,5.97
2023-01-25T09:45:51.756Z,5.70
2023-01-25T09:48:35.575Z,5.40
2023-01-25T09:51:11.870Z,4.75
2023-01-25T09:53:41.707Z,4.72
2023-01-25T09:56:12.325Z,5.20
2023-01-25T09:58:41.723Z,6.70
2023-01-25T10:01:17.822Z,5.85
2023-01-25T10:03:54.991Z,5.65
2023-01-25T10:06:23.959Z,5.15
2023-01-25T10:09:04.473Z,5.03
2023-01-25T10:11:32.665Z,5.50
2023-01-25T10:14:00.252Z,5.00
2023-01-25T10:16:32.074Z,4.15
2023-01-25T10:19:09.096Z,4.30
2023-01-25T10:21:39.625Z,11.68
2023-01-25T10:24:25.259Z,8.70
2023-01-25T10:26:56.730Z,6.45
2023-01-25T10:29:27.193Z,5.50
2023-01-25T10:32:08.955Z,7.93
2023-01-25T10:34:54.333Z,4.65
2023-01-25T10:37:25.895Z,3.65
2023-01-25T10:39:55.123Z,5.15
2023-01-25T10:42:22.946Z,3.85
2023-01-25T10:44:49.963Z,3.90
2023-01-25T10:47:20.144Z,4.30
2023-01-25T10:49:48.496Z,4.03
2023-01-25T10:52:23.088Z,3.97
2023-01-25T10:55:07.615Z,4.43
2023-01-25T10:57:36.206Z,4.82
2023-01-25T11:00:07.323Z,6.80
2023-01-25T11:02:48.582Z,7.22
2023-01-25T11:05:21.616Z,4.22
2023-01-25T11:07:49.415Z,5.10
2023-01-25T11:10:34.799Z,5.18
2023-01-25T11:13:15.385Z,4.95
2023-01-25T11:15:46.166Z,6.22
2023-01-25T11:18:14.778Z,4.60
2023-01-25T11:20:41.801Z,4.55
2023-01-25T11:23:29.100Z,4.82
2023-01-25T11:26:11.331Z,12.82
2023-01-25T11:28:38.497Z,5.78
2023-01-25T11:31:06.611Z,4.65
2023-01-25T11:33:33.663Z,4.55
2023-01-25T11:36:20.010Z,4.53
2023-01-25T11:39:07.317Z,5.00
2023-01-25T11:41:39.452Z,6.88
2023-01-25T11:44:06.451Z,4.75
2023-01-25T11:46:37.306Z,6.18
2023-01-25T11:49:05.517Z,5.15
2023-01-25T11:51:54.835Z,5.18
2023-01-25T11:54:30.964Z,4.35
2023-01-25T11:56:59.718Z,5.40
2023-01-25T11:59:42.123Z,4.28
2023-01-25T12:02:15.266Z,4.07
2023-01-25T12:04:42.415Z,4.60
2023-01-25T12:07:16.882Z,4.35
2023-01-25T12:09:53.710Z,4.10
2023-01-25T12:12:35.747Z,5.97
2023-01-25T12:15:21.713Z,5.55
2023-01-25T12:17:51.749Z,5.25
2023-01-25T12:20:32.051Z,4.65
2023-01-25T12:23:17.521Z,6.18
2023-01-25T12:26:03.562Z,4.35
2023-01-25T12:28:37.256Z,5.28
2023-01-25T12:31:09.154Z,5.68
2023-01-25T12:34:03.771Z,5.22
2023-01-25T12:36:37.072Z,5.47
2023-01-25T12:39:16.212Z,4.72
2023-01-25T12:41:50.302Z,4.50
2023-01-25T12:44:26.202Z,5.50
2023-01-25T12:47:15.290Z,4.90
2023-01-25T12:49:48.445Z,5.93
2023-01-25T12:52:30.797Z,6.57
2023-01-25T12:55:00.371Z,6.47
2023-01-25T12:57:27.448Z,7.53
2023-01-25T13:00:14.086Z,5.00
2023-01-25T13:02:53.151Z,6.50
2023-01-25T13:05:20.201Z,5.80
2023-01-25T13:08:03.246Z,5.80
2023-01-25T13:10:32.749Z,6.55
2023-01-25T13:13:03.892Z,8.50
2023-01-25T13:15:37.170Z,7.90
2023-01-25T13:18:36.047Z,6.22
2023-01-25T13:21:05.053Z,5.57
2023-01-25T13:23:33.871Z,7.85
2023-01-25T13:26:19.699Z,6.72
2023-01-25T13:28:46.807Z,5.47
2023-01-25T13:31:29.920Z,5.65
2023-01-25T13:34:00.057Z,5.57
2023-01-25T13:36:45.645Z,7.10
2023-01-25T13:39:24.887Z,6.60
2023-01-25T13:42:01.967Z,7.10
2023-01-25T13:44:30.173Z,6.82
2023-01-25T13:47:01.934Z,6.38
2023-01-25T13:49:35.148Z,5.60
2023-01-25T13:52:02.724Z,6.97
2023-01-25T13:54:31.137Z,7.53
2023-01-25T13:57:05.065Z,7.32
2023-01-25T13:59:32.189Z,5.72
2023-01-25T14:02:00.004Z,7.05
2023-01-25T14:04:27.959Z,7.90
2023-01-25T14:06:59.983Z,5.43
2023-01-25T14:09:27.093Z,5.85
2023-01-25T14:11:58.830Z,5.72
2023-01-25T14:14:27.225Z,5.70
2023-01-25T14:17:23.678Z,5.50
2023-01-25T14:19:53.679Z,7.38
2023-01-25T14:22:28.250Z,8.27
2023-01-25T14:25:22.336Z,9.13
2023-01-25T14:27:51.393Z,7.80
2023-01-25T14:30:28.697Z,6.65
2023-01-25T14:32:56.887Z,6.63
2023-01-25T14:35:43.175Z,6.22
2023-01-25T14:38:28.121Z,7.93
2023-01-25T14:41:18.425Z,6.70
2023-01-25T14:43:50.018Z,5.38
2023-01-25T14:46:23.217Z,7.85
2023-01-25T14:48:51.892Z,6.70
2023-01-25T14:51:27.799Z,5.70
2023-01-25T14:54:18.215Z,8.23
2023-01-25T14:56:46.894Z,7.78
2023-01-25T14:59:31.304Z,8.02
2023-01-25T15:02:00.342Z,7.25
2023-01-25T15:04:27.464Z,7.40
2023-01-25T15:06:57.400Z,6.60
2023-01-25T15:09:31.110Z,7.82
2023-01-25T15:12:02.602Z,6.90
2023-01-25T15:14:29.657Z,7.28
2023-01-25T15:16:56.899Z,7.53
2023-01-25T15:19:30.898Z,9.88
2023-01-25T15:21:59.663Z,8.07
2023-01-25T15:24:27.664Z,9.05
2023-01-25T15:26:55.587Z,8.77
2023-01-25T15:29:25.722Z,7.15
2023-01-25T15:31:53.477Z,6.45
2023-01-25T15:34:22.037Z,6.55
2023-01-25T15:36:49.285Z,8.60
2023-01-25T15:39:17.760Z,17.17
2023-01-25T15:41:45.172Z,7.47
2023-01-25T15:44:12.708Z,9.60
2023-01-25T15:46:45.463Z,6.78
2023-01-25T15:49:18.033Z,8.02
2023-01-25T15:51:45.112Z,7.10
2023-01-25T15:54:12.128Z,7.80
2023-01-25T15:56:41.055Z,8.15
2023-01-25T15:59:09.299Z,8.20
2023-01-25T16:01:36.434Z,8.02
2023-01-25T16:04:03.515Z,6.88
2023-01-25T16:06:48.375Z,7.63
2023-01-25T16:09:22.969Z,7.10
2023-01-25T16:11:57.006Z,9.13
2023-01-25T16:14:28.926Z,7.43
2023-01-25T16:16:57.230Z,7.45
2023-01-25T16:19:24.888Z,6.70
2023-01-25T16:21:52.347Z,7.18
2023-01-25T16:24:19.503Z,7.38
2023-01-25T16:26:52.450Z,8.32
2023-01-25T16:29:19.493Z,10.27
2023-01-25T16:31:46.635Z,8.38
2023-01-25T16:34:13.706Z,7.57
2023-01-25T16:36:41.275Z,6.78
2023-01-25T16:39:16.394Z,7.63
2023-01-25T16:41:43.410Z,11.15
2023-01-25T16:44:10.419Z,9.80
2023-01-25T16:46:37.555Z,8.68
2023-01-25T16:49:06.707Z,7.78
2023-01-25T16:51:33.984Z,6.40
2023-01-25T16:54:01.139Z,10.77
2023-01-25T16:56:32.568Z,6.53
2023-01-25T16:59:03.816Z,8.10
2023-01-25T17:01:30.943Z,6.63
2023-01-25T17:03:58.282Z,6.35
2023-01-25T17:06:26.569Z,8.52
2023-01-25T17:08:55.996Z,6.68
2023-01-25T17:11:23.404Z,5.43
2023-01-25T17:13:51.247Z,6.32
2023-01-25T17:16:19.095Z,7.85
2023-01-25T17:18:46.573Z,6.45
2023-01-25T17:21:19.245Z,6.45
2023-01-25T17:23:46.356Z,6.15
2023-01-25T17:26:14.465Z,7.55
2023-01-25T17:28:42.011Z,7.78
2023-01-25T17:31:19.877Z,7.68
2023-01-25T17:33:47.079Z,7.18
2023-01-25T17:36:15.246Z,7.35
2023-01-25T17:38:42.450Z,6.80
2023-01-25T17:41:10.857Z,6.63
2023-01-25T17:43:37.916Z,7.45
2023-01-25T17:46:11.857Z,6.00
2023-01-25T17:48:38.955Z,6.50
2023-01-25T17:51:06.150Z,7.97
2023-01-25T17:53:33.354Z,7.55
2023-01-25T17:56:03.935Z,7.32
2023-01-25T17:58:31.832Z,7.03
2023-01-25T18:01:11.936Z,11.05
2023-01-25T18:03:40.423Z,10.57
2023-01-25T18:06:10.448Z,7.95
2023-01-25T18:08:38.378Z,8.02
2023-01-25T18:11:08.624Z,8.65
2023-01-25T18:13:38.347Z,7.53
2023-01-25T18:16:06.944Z,10.00
2023-01-25T18:18:34.021Z,7.93
2023-01-25T18:21:09.000Z,7.55
2023-01-25T18:23:38.024Z,9.50
2023-01-25T18:26:06.432Z,7.50
2023-01-25T18:28:34.014Z,8.43
2023-01-25T18:31:02.583Z,8.38
2023-01-25T18:33:29.723Z,8.65
2023-01-25T18:36:00.826Z,8.00
2023-01-25T18:38:29.692Z,8.00
2023-01-25T18:40:57.357Z,7.53
2023-01-25T18:43:24.473Z,8.38
2023-01-25T18:45:58.567Z,6.82
2023-01-25T18:48:32.454Z,7.05
2023-01-25T18:51:00.729Z,8.10
2023-01-25T18:53:27.954Z,7.75
2023-01-25T18:56:14.531Z,7.70
2023-01-25T18:58:41.939Z,7.88
2023-01-25T19:01:16.160Z,7.10
2023-01-25T19:03:44.101Z,7.85
2023-01-25T19:06:11.304Z,7.97
2023-01-25T19:08:43.138Z,8.07
2023-01-25T19:11:12.185Z,8.88
2023-01-25T19:13:40.058Z,8.52
2023-01-25T19:16:15.019Z,9.95
2023-01-25T19:18:46.125Z,9.15
2023-01-25T19:21:24.734Z,9.10
2023-01-25T19:23:52.488Z,10.05
2023-01-25T19:26:20.525Z,8.18
2023-01-25T19:28:48.338Z,8.93
2023-01-25T19:31:16.517Z,9.00
2023-01-25T19:33:43.885Z,10.05
2023-01-25T19:36:16.565Z,10.00
2023-01-25T19:38:43.648Z,8.38
2023-01-25T19:41:14.833Z,9.38
2023-01-25T19:43:41.928Z,8.73
2023-01-25T19:46:14.838Z,8.77
2023-01-25T19:48:42.364Z,9.15
2023-01-25T19:51:12.433Z,7.60
2023-01-25T19:53:40.133Z,7.55
2023-01-25T19:56:08.209Z,8.88
2023-01-25T19:58:35.788Z,8.43
2023-01-25T20:01:06.735Z,8.10
2023-01-25T20:03:33.869Z,8.40
2023-01-25T20:06:02.676Z,7.50
2023-01-25T20:08:33.462Z,10.95
2023-01-25T20:11:04.653Z,7.90
2023-01-25T20:13:31.697Z,8.50
2023-01-25T20:15:58.913Z,7.20
2023-01-25T20:18:26.491Z,10.00
2023-01-25T20:20:57.293Z,8.32
2023-01-25T20:23:24.813Z,10.77
2023-01-25T20:26:03.067Z,10.32
2023-01-25T20:28:30.451Z,11.05
2023-01-25T20:30:59.393Z,8.80
2023-01-25T20:33:26.477Z,9.95
2023-01-25T20:35:55.043Z,9.00
2023-01-25T20:38:22.194Z,10.70
2023-01-25T20:40:49.552Z,8.85
2023-01-25T20:43:16.629Z,9.13
2023-01-25T20:45:43.702Z,9.70
2023-01-25T20:48:10.734Z,9.80
2023-01-25T20:50:37.739Z,8.95
2023-01-25T20:53:05.056Z,9.57
2023-01-25T20:55:32.071Z,8.73
2023-01-25T20:57:59.287Z,8.85
2023-01-25T21:00:26.457Z,11.85
2023-01-25T21:02:53.654Z,9.40
2023-01-25T21:05:20.692Z,9.20
2023-01-25T21:07:47.726Z,9.57
2023-01-25T21:10:14.850Z,9.50
2023-01-25T21:12:41.994Z,10.90
2023-01-25T21:15:09.782Z,14.52
2023-01-25T21:17:38.785Z,13.13
2023-01-25T21:20:06.921Z,12.00
2023-01-25T21:22:33.978Z,10.10
2023-01-25T21:25:01.055Z,9.82
2023-01-25T21:27:29.614Z,10.52
2023-01-25T21:29:57.095Z,10.93
2023-01-25T21:32:24.143Z,9.75
2023-01-25T21:34:51.231Z,10.30
2023-01-25T21:37:18.283Z,10.23
2023-01-25T21:39:45.395Z,10.63
2023-01-25T21:42:12.466Z,10.73
2023-01-25T21:44:57.997Z,10.50
2023-01-25T21:47:30.380Z,11.88
2023-01-25T21:50:16.579Z,10.27
2023-01-25T21:52:43.603Z,10.75
2023-01-25T21:55:10.633Z,13.70
2023-01-25T21:57:46.135Z,10.60
2023-01-25T22:00:14.320Z,10.38
2023-01-25T22:02:41.423Z,10.00
2023-01-25T22:05:08.579Z,10.52
2023-01-25T22:07:35.720Z,11.05
2023-01-25T22:10:02.762Z,11.05
2023-01-25T22:12:29.829Z,9.75
2023-01-25T22:14:56.842Z,11.95
2023-01-25T22:17:25.511Z,11.63
2023-01-25T22:19:52.562Z,11.20
2023-01-25T22:22:19.597Z,10.57
2023-01-25T22:24:47.315Z,8.80
2023-01-25T22:27:17.417Z,10.75
2023-01-25T22:29:44.503Z,9.65
2023-01-25T22:32:11.599Z,9.93
2023-01-25T22:34:38.662Z,10.35
2023-01-25T22:37:05.686Z,10.07
2023-01-25T22:39:32.714Z,10.25
2023-01-25T22:41:59.784Z,11.15
2023-01-25T22:44:26.789Z,10.15
2023-01-25T22:46:53.879Z,10.68
2023-01-25T22:49:20.960Z,11.30
2023-01-25T22:51:48.041Z,11.48
2023-01-25T22:54:15.067Z,11.63
2023-01-25T22:56:43.238Z,10.23
2023-01-25T22:59:14.218Z,10.00
2023-01-25T23:01:41.220Z,11.73
2023-01-25T23:04:08.380Z,10.00
2023-01-25T23:06:35.440Z,11.60
2023-01-25T23:09:03.375Z,11.45
2023-01-25T23:11:36.855Z,10.68
2023-01-25T23:14:23.548Z,10.70
2023-01-25T23:16:50.583Z,11.38
2023-01-25T23:19:17.635Z,12.32
2023-01-25T23:21:44.948Z,10.32
2023-01-25T23:24:12.486Z,11.52
2023-01-25T23:26:40.789Z,10.73
2023-01-25T23:29:09.339Z,11.00
2023-01-25T23:31:36.655Z,10.20
2023-01-25T23:34:05.252Z,11.43
2023-01-25T23:36:33.566Z,10.93
2023-01-25T23:39:00.811Z,11.15
2023-01-25T23:41:29.132Z,11.90
2023-01-25T23:43:56.553Z,10.68
2023-01-25T23:46:24.271Z,11.18
2023-01-25T23:48:51.614Z,10.90
2023-01-25T23:51:18.927Z,13.02
2023-01-25T23:53:58.248Z,12.25
2023-01-25T23:56:25.312Z,12.20
2023-01-25T23:58:52.327Z,12.00
